Time;durP1;ratioP1;P1;durP2;ratioP2;P2;SDS_P1;SDS_P2;PMS_P1;PMS_P2;Temp;Humidity;BMP_temperature;BMP_pressure;BME280_temperature;BME280_humidity;BME280_pressure;Samples;Min_cycle;Max_cycle;Signal;HPM_P1;HPM_P2
2021/12/05 00:19:18;;;;;;;7.47;2.70;;;5.40;99.90;;;;;;5012026;28;20436;-83
2021/12/05 00:24:01;;;;;;;7.80;2.20;;;5.20;99.90;;;;;;5012201;28;20411;-83
2021/12/05 00:26:29;;;;;;;3.77;2.10;;;5.10;99.90;;;;;;5026848;28;20430;-83
2021/12/05 01:11:45;;;;;;;5.10;2.20;;;4.80;99.90;;;;;;5014757;28;20420;-82
2021/12/05 01:16:47;;;;;;;5.93;2.53;;;4.80;99.90;;;;;;5014980;28;20441;-83
2021/12/05 01:19:14;;;;;;;2.87;1.87;;;4.80;99.90;;;;;;5014029;28;20433;-83
2021/12/05 01:21:41;;;;;;;5.70;2.30;;;4.80;99.90;;;;;;5030147;28;20434;-83
2021/12/05 01:24:20;;;;;;;8.30;2.30;;;4.80;99.90;;;;;;5029508;28;20453;-83
2021/12/05 01:26:58;;;;;;;6.17;1.80;;;4.70;99.90;;;;;;5029598;28;20428;-84
2021/12/05 01:32:05;;;;;;;5.80;2.30;;;4.70;99.90;;;;;;5014485;28;20505;-83
2021/12/05 01:37:18;;;;;;;3.97;1.83;;;4.70;99.90;;;;;;5014370;28;20446;-83
2021/12/05 01:53:13;;;;;;;8.73;1.80;;;5.00;99.90;;;;;;5014003;28;20436;-84
2021/12/05 02:09:12;;;;;;;8.53;2.90;;;5.10;99.90;;;;;;5067581;22;20552;-85
2021/12/05 02:12:13;;;;;;;9.07;2.43;;;5.10;99.90;;;;;;5031919;28;20453;-85
2021/12/05 02:31:38;;;;;;;7.90;1.97;;;5.20;99.90;;;;;;5013777;28;20405;-85
2021/12/05 02:41:51;;;;;;;5.03;2.07;;;5.40;99.90;;;;;;5033084;28;20511;-84
2021/12/05 02:44:22;;;;;;;7.50;2.27;;;5.40;99.90;;;;;;5031767;28;20970;-84
2021/12/05 02:46:59;;;;;;;4.30;1.90;;;5.40;99.90;;;;;;5031785;28;20460;-85
2021/12/05 02:49:26;;;;;;;4.20;2.03;;;5.40;99.90;;;;;;5031432;28;20450;-84
2021/12/05 02:51:57;;;;;;;5.50;1.80;;;5.40;99.90;;;;;;5030611;28;20516;-84
2021/12/05 02:54:26;;;;;;;7.27;2.07;;;5.40;99.90;;;;;;5031607;28;20418;-84
2021/12/05 02:56:54;;;;;;;8.70;3.20;;;5.40;99.90;;;;;;5031514;28;20422;-84
2021/12/05 02:59:46;;;;;;;7.63;2.27;;;5.40;99.90;;;;;;5031247;28;20834;-85
2021/12/05 03:02:17;;;;;;;4.47;1.87;;;5.40;99.90;;;;;;5032061;28;20421;-84
2021/12/05 03:04:47;;;;;;;7.97;2.47;;;5.40;99.90;;;;;;5031303;28;20782;-84
2021/12/05 03:07:15;;;;;;;5.70;1.80;;;5.40;99.90;;;;;;5032507;28;20456;-84
2021/12/05 03:09:42;;;;;;;12.30;2.70;;;5.40;99.90;;;;;;5031023;28;20477;-84
2021/12/05 03:12:11;;;;;;;4.43;2.23;;;5.40;99.90;;;;;;5032620;28;20446;-84
2021/12/05 03:14:37;;;;;;;4.30;1.80;;;5.30;99.90;;;;;;5031103;28;20434;-85
2021/12/05 03:17:04;;;;;;;6.20;1.93;;;5.30;99.90;;;;;;5031295;28;20593;-84
2021/12/05 03:19:30;;;;;;;7.10;2.27;;;5.20;99.90;;;;;;5031837;28;20426;-85
2021/12/05 03:21:55;;;;;;;7.83;2.00;;;5.20;99.90;;;;;;5032316;28;20912;-84
2021/12/05 03:24:23;;;;;;;4.37;2.03;;;5.10;99.90;;;;;;5031015;28;20180;-84
2021/12/05 03:26:52;;;;;;;3.13;1.57;;;5.10;99.90;;;;;;5031050;28;20209;-85
2021/12/05 03:29:19;;;;;;;5.83;1.63;;;5.00;99.90;;;;;;5030840;28;20795;-85
2021/12/05 03:31:46;;;;;;;3.50;2.00;;;4.90;99.90;;;;;;5030969;28;20426;-84
2021/12/05 03:34:14;;;;;;;10.03;3.30;;;4.90;99.90;;;;;;5031200;28;20427;-83
2021/12/05 03:36:43;;;;;;;8.13;2.13;;;4.80;99.90;;;;;;5030895;28;20421;-84
2021/12/05 03:39:09;;;;;;;5.93;2.10;;;4.80;99.90;;;;;;5030796;28;20476;-84
2021/12/05 03:41:35;;;;;;;5.80;2.07;;;4.70;99.90;;;;;;5032071;28;20421;-83
2021/12/05 03:44:03;;;;;;;4.93;2.60;;;4.70;99.90;;;;;;5031036;28;20934;-84
2021/12/05 03:46:29;;;;;;;6.47;2.03;;;4.60;99.90;;;;;;5030683;28;20420;-84
2021/12/05 03:48:59;;;;;;;4.10;2.00;;;4.50;99.90;;;;;;5030756;28;20999;-84
2021/12/05 03:51:28;;;;;;;3.13;1.40;;;4.50;99.90;;;;;;5030668;28;20428;-83
2021/12/05 03:53:54;;;;;;;4.93;1.90;;;4.50;99.90;;;;;;5030739;28;20422;-84
2021/12/05 03:56:21;;;;;;;5.83;1.60;;;4.40;99.90;;;;;;5030759;28;20420;-84
2021/12/05 03:58:48;;;;;;;4.50;2.23;;;4.40;99.90;;;;;;5030670;28;20440;-83
2021/12/05 04:01:14;;;;;;;5.60;2.30;;;4.40;99.90;;;;;;5031847;28;20474;-84
2021/12/05 04:03:42;;;;;;;4.00;2.00;;;4.30;99.90;;;;;;5033047;28;20423;-84
2021/12/05 04:06:10;;;;;;;3.97;2.10;;;4.20;99.90;;;;;;5034742;28;20438;-84
2021/12/05 04:08:38;;;;;;;7.17;2.20;;;4.20;99.90;;;;;;5034408;28;20846;-84
2021/12/05 04:11:10;;;;;;;10.03;2.27;;;4.20;99.90;;;;;;5034593;28;20431;-84
2021/12/05 04:13:35;;;;;;;6.33;1.70;;;4.20;99.90;;;;;;5035894;28;20407;-84
2021/12/05 04:16:05;;;;;;;7.13;2.30;;;4.10;99.90;;;;;;5035760;28;20419;-84
2021/12/05 04:18:31;;;;;;;5.40;1.90;;;4.10;99.90;;;;;;5033598;28;20204;-84
2021/12/05 04:20:57;;;;;;;6.37;1.90;;;4.00;99.90;;;;;;5034607;28;20946;-82
2021/12/05 04:23:23;;;;;;;5.33;2.17;;;4.00;99.90;;;;;;5034542;28;20458;-84
2021/12/05 04:25:51;;;;;;;4.60;1.90;;;3.90;99.90;;;;;;5034325;28;20455;-84
2021/12/05 04:28:18;;;;;;;4.37;2.03;;;3.90;99.90;;;;;;5034210;28;20221;-84
2021/12/05 04:30:44;;;;;;;6.40;2.40;;;3.80;99.90;;;;;;5033977;28;20422;-84
2021/12/05 04:33:10;;;;;;;7.50;2.13;;;3.80;99.90;;;;;;5034274;28;20423;-84
2021/12/05 04:35:35;;;;;;;5.37;2.13;;;3.90;99.90;;;;;;5035361;28;20705;-84
2021/12/05 04:38:01;;;;;;;14.60;2.87;;;3.90;99.90;;;;;;5034091;28;20212;-84
2021/12/05 04:40:27;;;;;;;5.27;2.23;;;3.90;99.90;;;;;;5033960;28;20196;-84
2021/12/05 04:42:53;;;;;;;3.60;1.80;;;3.80;99.90;;;;;;5034091;28;20419;-84
2021/12/05 04:45:27;;;;;;;3.80;2.00;;;3.80;99.90;;;;;;5034152;28;20430;-84
2021/12/05 04:47:54;;;;;;;6.20;1.83;;;3.80;99.90;;;;;;5035284;28;20204;-83
2021/12/05 04:50:21;;;;;;;8.30;1.83;;;3.80;99.90;;;;;;5033719;28;20421;-84
2021/12/05 04:52:48;;;;;;;4.90;1.80;;;3.80;99.90;;;;;;5033754;28;21063;-84
2021/12/05 04:55:13;;;;;;;9.03;2.20;;;3.80;99.90;;;;;;5033947;28;20426;-85
2021/12/05 04:57:41;;;;;;;5.63;1.73;;;3.80;99.90;;;;;;5033798;28;20454;-84
2021/12/05 05:00:15;;;;;;;8.77;2.30;;;3.70;99.90;;;;;;5033683;28;20219;-84
2021/12/05 05:02:40;;;;;;;4.17;1.90;;;3.80;99.90;;;;;;5033839;28;20477;-84
2021/12/05 05:05:07;;;;;;;9.73;2.63;;;3.70;99.90;;;;;;5033710;28;20435;-84
2021/12/05 05:07:34;;;;;;;4.67;1.97;;;3.70;99.90;;;;;;5034503;28;20224;-84
2021/12/05 05:10:08;;;;;;;3.60;1.70;;;3.70;99.90;;;;;;5033561;28;20427;-84
2021/12/05 05:12:34;;;;;;;9.03;1.97;;;3.60;99.90;;;;;;5034863;28;20409;-84
2021/12/05 05:14:59;;;;;;;3.33;1.63;;;3.60;99.90;;;;;;5032801;28;20419;-83
2021/12/05 05:17:25;;;;;;;3.67;2.10;;;3.60;99.90;;;;;;5033515;28;20298;-84
2021/12/05 05:19:59;;;;;;;7.50;2.53;;;3.60;99.90;;;;;;5033161;28;20188;-84
2021/12/05 05:22:41;;;;;;;5.37;2.10;;;3.60;99.90;;;;;;5033529;28;20411;-84
2021/12/05 05:28:12;;;;;;;4.93;1.67;;;3.60;99.90;;;;;;5034683;28;20505;-84
2021/12/05 05:47:25;;;;;;;4.63;1.77;;;3.50;99.90;;;;;;5034207;28;20502;-84
2021/12/05 05:49:57;;;;;;;3.90;1.57;;;3.60;99.90;;;;;;5034000;28;20914;-84
2021/12/05 05:52:23;;;;;;;6.47;2.00;;;3.60;99.90;;;;;;5033974;28;20400;-84
2021/12/05 05:54:50;;;;;;;5.40;1.90;;;3.60;99.90;;;;;;5032849;28;20418;-84
2021/12/05 06:00:00;;;;;;;3.53;1.70;;;3.60;99.90;;;;;;5034062;28;20422;-84
2021/12/05 06:05:10;;;;;;;4.10;1.60;;;3.60;99.90;;;;;;5034163;28;20510;-85
2021/12/05 06:07:42;;;;;;;10.50;2.20;;;3.50;99.90;;;;;;5032323;28;20487;-84
2021/12/05 06:10:10;;;;;;;4.73;2.00;;;3.50;99.90;;;;;;5032270;28;20421;-84
2021/12/05 06:12:37;;;;;;;2.77;1.63;;;3.50;99.90;;;;;;5032481;28;20922;-84
2021/12/05 06:15:04;;;;;;;3.47;1.70;;;3.40;99.90;;;;;;5032436;28;20509;-84
2021/12/05 06:17:30;;;;;;;8.10;2.23;;;3.40;99.90;;;;;;5032160;28;20446;-85
2021/12/05 06:19:55;;;;;;;4.03;1.97;;;3.40;99.90;;;;;;5033470;28;20407;-84
2021/12/05 06:22:21;;;;;;;4.23;2.10;;;3.30;99.90;;;;;;5032175;28;20552;-84
2021/12/05 06:24:47;;;;;;;3.83;2.00;;;3.30;99.90;;;;;;5032153;28;20291;-85
2021/12/05 06:27:12;;;;;;;6.40;2.80;;;3.30;99.90;;;;;;5031031;28;20184;-84
2021/12/05 06:29:45;;;;;;;5.00;2.00;;;3.20;99.90;;;;;;5031885;28;20173;-84
2021/12/05 06:37:49;;;;;;;3.43;1.93;;;3.20;99.90;;;;;;5033073;28;21064;-84
2021/12/05 06:40:23;;;;;;;4.10;2.40;;;3.10;99.90;;;;;;5031540;28;20414;-84
2021/12/05 06:42:59;;;;;;;4.87;2.17;;;3.00;99.90;;;;;;5029248;28;20424;-84
2021/12/05 06:46:29;;;;;;;6.43;2.17;;;3.00;99.90;;;;;;5031697;28;20901;-84
2021/12/05 06:48:19;;;;;;;6.37;2.33;;;3.00;99.90;;;;;;5019368;28;20477;-84
2021/12/05 06:50:45;;;;;;;5.93;1.73;;;3.00;99.90;;;;;;5027751;28;20998;-84
2021/12/05 06:53:10;;;;;;;2.73;1.63;;;3.00;99.90;;;;;;5016837;28;20184;-84
2021/12/05 06:55:36;;;;;;;5.33;1.60;;;2.90;99.90;;;;;;5031499;28;20643;-85
2021/12/05 06:58:02;;;;;;;3.17;1.73;;;3.00;99.90;;;;;;5032697;28;20214;-84
2021/12/05 07:00:29;;;;;;;5.90;1.90;;;3.00;99.90;;;;;;5032372;28;20637;-83
2021/12/05 07:02:55;;;;;;;5.03;1.80;;;3.10;99.90;;;;;;5032546;28;20512;-84
2021/12/05 07:06:10;;;;;;;7.83;1.93;;;3.20;99.90;;;;;;5032640;28;20510;-83
2021/12/05 07:08:08;;;;;;;3.10;1.60;;;3.30;99.90;;;;;;5024932;28;20235;-84
2021/12/05 07:10:44;;;;;;;6.40;1.70;;;3.40;99.90;;;;;;5031140;28;20446;-84
2021/12/05 07:16:21;;;;;;;7.77;1.90;;;3.70;99.90;;;;;;5032589;28;20494;-85
2021/12/05 07:21:17;;;;;;;4.47;1.77;;;3.80;99.90;;;;;;5032748;28;20426;-85
2021/12/05 07:26:44;;;;;;;6.23;2.20;;;4.00;99.90;;;;;;5032819;28;20434;-84
2021/12/05 07:40:27;;;;;;;6.50;4.50;;;4.30;99.90;;;;;;5032157;28;20502;-84
2021/12/05 07:43:05;;;;;;;7.97;2.33;;;4.40;99.90;;;;;;5030916;28;20418;-84
2021/12/05 07:45:48;;;;;;;3.93;1.73;;;4.50;99.90;;;;;;5031065;28;20578;-84
2021/12/05 07:48:20;;;;;;;2.70;1.43;;;4.50;99.90;;;;;;5031216;28;20475;-85
2021/12/05 07:51:02;;;;;;;2.93;1.63;;;4.60;99.90;;;;;;5030967;28;20425;-84
2021/12/05 07:53:34;;;;;;;3.63;1.50;;;4.60;99.90;;;;;;5032483;28;20397;-84
2021/12/05 07:56:04;;;;;;;3.50;1.90;;;4.70;99.90;;;;;;5031319;28;20419;-84
2021/12/05 08:14:39;;;;;;;4.53;1.60;;;5.00;99.90;;;;;;5032116;28;20452;-83
2021/12/05 08:17:06;;;;;;;8.83;1.93;;;5.10;99.90;;;;;;5031689;28;20953;-83
2021/12/05 08:19:32;;;;;;;5.30;2.30;;;5.10;99.90;;;;;;5030347;28;20426;-83
2021/12/05 08:21:58;;;;;;;3.67;1.90;;;5.20;99.90;;;;;;5030476;28;20925;-84
2021/12/05 08:24:33;;;;;;;3.87;1.83;;;5.20;99.90;;;;;;5030819;28;20176;-83
2021/12/05 08:27:00;;;;;;;3.93;1.83;;;5.30;99.90;;;;;;5030589;28;20185;-84
2021/12/05 08:29:51;;;;;;;4.17;2.00;;;5.30;99.90;;;;;;5030133;28;20494;-83
2021/12/05 08:32:26;;;;;;;3.10;1.60;;;5.30;99.90;;;;;;5031254;28;20428;-83
2021/12/05 08:35:06;;;;;;;5.17;1.83;;;5.30;99.90;;;;;;5030672;28;20476;-84
2021/12/05 08:40:55;;;;;;;6.10;2.70;;;5.40;99.90;;;;;;5031742;28;20455;-83
2021/12/05 09:08:38;;;;;;;3.40;1.80;;;5.40;99.90;;;;;;5031465;28;20226;-84
2021/12/05 09:30:05;;;;;;;7.47;2.50;;;5.40;99.90;;;;;;5022517;28;20415;-81
2021/12/05 10:02:44;;;;;;;3.70;2.07;;;5.50;99.90;;;;;;5013542;28;20494;-81
2021/12/05 10:10:53;;;;;;;2.80;1.80;;;5.60;99.90;;;;;;5014111;28;20428;-80
2021/12/05 10:13:27;;;;;;;4.00;2.30;;;5.60;99.90;;;;;;5013491;28;20402;-80
2021/12/05 10:16:13;;;;;;;4.30;1.90;;;5.80;99.90;;;;;;5012078;28;20457;-80
2021/12/05 10:38:01;;;;;;;3.27;1.77;;;6.70;99.90;;;;;;5012429;28;20438;-82
2021/12/05 10:40:38;;;;;;;4.40;1.97;;;6.80;99.90;;;;;;5011381;28;20440;-81
2021/12/05 10:43:14;;;;;;;5.00;2.30;;;6.80;99.90;;;;;;5013046;28;20423;-81
2021/12/05 10:46:03;;;;;;;5.43;2.10;;;6.90;99.90;;;;;;5013086;28;20422;-82
2021/12/05 10:48:36;;;;;;;4.37;2.00;;;7.00;99.90;;;;;;5012960;28;21313;-81
2021/12/05 10:51:21;;;;;;;7.60;3.23;;;7.10;99.90;;;;;;5011532;28;20865;-82
2021/12/05 10:54:24;;;;;;;5.80;3.00;;;7.10;99.90;;;;;;5028388;28;20448;-82
2021/12/05 10:56:54;;;;;;;4.47;1.53;;;7.20;99.90;;;;;;5010514;28;20463;-82
2021/12/05 10:59:24;;;;;;;2.90;1.60;;;7.30;99.90;;;;;;5028107;28;20479;-82
2021/12/05 11:01:51;;;;;;;4.77;2.30;;;7.40;99.90;;;;;;5027844;28;20431;-82
2021/12/05 11:04:19;;;;;;;6.53;2.40;;;7.50;99.90;;;;;;5027916;28;20428;-82
2021/12/05 11:06:54;;;;;;;6.07;2.70;;;7.60;99.90;;;;;;5011309;28;20427;-82
2021/12/05 11:09:22;;;;;;;4.43;1.90;;;7.60;99.90;;;;;;5027567;28;20471;-82
2021/12/05 11:11:53;;;;;;;3.73;2.20;;;7.70;99.90;;;;;;5012600;28;20840;-82
2021/12/05 11:14:25;;;;;;;4.50;2.00;;;7.70;99.90;;;;;;5012435;28;20470;-82
2021/12/05 11:17:13;;;;;;;3.53;1.60;;;7.70;99.90;;;;;;5027965;28;20431;-82
2021/12/05 11:19:47;;;;;;;2.90;1.40;;;7.60;99.90;;;;;;5011273;28;20475;-82
2021/12/05 11:22:25;;;;;;;4.40;2.07;;;7.50;99.90;;;;;;5027767;28;20427;-82
2021/12/05 11:25:00;;;;;;;3.23;1.63;;;7.50;99.90;;;;;;5027445;28;20519;-82
2021/12/05 11:27:41;;;;;;;3.30;2.30;;;7.50;99.90;;;;;;5027622;28;20517;-82
2021/12/05 11:30:10;;;;;;;3.60;1.90;;;7.50;99.90;;;;;;5012119;28;20397;-82
2021/12/05 11:32:41;;;;;;;4.20;2.00;;;7.50;99.90;;;;;;5027584;28;20503;-82
2021/12/05 11:35:18;;;;;;;3.23;1.70;;;7.50;99.90;;;;;;5027393;28;20427;-82
2021/12/05 11:38:03;;;;;;;3.40;1.70;;;7.60;99.90;;;;;;5027456;28;20993;-81
2021/12/05 11:40:53;;;;;;;3.23;2.00;;;7.70;99.90;;;;;;5012193;28;20495;-82
2021/12/05 11:43:26;;;;;;;4.00;1.90;;;7.90;99.90;;;;;;5027514;28;20420;-82
2021/12/05 11:45:54;;;;;;;4.70;1.77;;;8.10;99.90;;;;;;5012265;28;20420;-82
2021/12/05 11:48:23;;;;;;;3.50;1.70;;;8.40;99.90;;;;;;5027313;28;20472;-82
2021/12/05 11:50:49;;;;;;;5.00;1.83;;;8.70;99.90;;;;;;5026870;28;20840;-82
2021/12/05 11:53:31;;;;;;;4.60;1.50;;;8.90;99.90;;;;;;5010926;28;20978;-82
2021/12/05 11:55:57;;;;;;;4.60;1.80;;;9.00;99.90;;;;;;5027227;28;20999;-81
2021/12/05 11:58:23;;;;;;;3.67;1.97;;;9.10;99.90;;;;;;5027284;28;20446;-82
2021/12/05 12:00:49;;;;;;;3.50;1.70;;;9.20;99.90;;;;;;5011809;28;20626;-82
2021/12/05 12:03:28;;;;;;;3.30;1.77;;;9.50;99.90;;;;;;5027377;28;20428;-82
2021/12/05 12:05:53;;;;;;;3.90;1.70;;;10.00;99.90;;;;;;5012111;28;20703;-82
2021/12/05 12:08:19;;;;;;;3.40;1.73;;;10.80;99.90;;;;;;5011611;28;20507;-82
2021/12/05 12:11:00;;;;;;;3.60;1.80;;;11.40;99.90;;;;;;5010357;28;20668;-82
2021/12/05 12:13:31;;;;;;;3.13;1.80;;;11.90;99.90;;;;;;5029950;28;20418;-82
2021/12/05 12:16:00;;;;;;;3.43;1.80;;;12.30;99.90;;;;;;5035265;28;20416;-83
2021/12/05 12:18:32;;;;;;;3.43;1.80;;;12.70;99.90;;;;;;5029641;28;20451;-83
2021/12/05 12:21:00;;;;;;;3.20;1.90;;;13.20;99.90;;;;;;5029005;28;20420;-83
2021/12/05 12:23:27;;;;;;;3.47;2.17;;;13.90;99.90;;;;;;5028641;28;20884;-83
2021/12/05 12:25:57;;;;;;;7.40;1.80;;;14.00;99.90;;;;;;5032236;28;20420;-83
2021/12/05 12:28:22;;;;;;;2.80;1.50;;;14.20;99.90;;;;;;5031830;28;20503;-83
2021/12/05 12:31:15;;;;;;;3.20;1.63;;;14.20;99.90;;;;;;5031843;28;20451;-83
2021/12/05 12:33:51;;;;;;;3.17;1.63;;;14.20;99.90;;;;;;5031538;28;20217;-83
2021/12/05 12:36:35;;;;;;;2.60;1.27;;;13.40;99.90;;;;;;5016003;28;20396;-82
2021/12/05 12:39:05;;;;;;;2.70;1.23;;;12.80;99.90;;;;;;5015453;28;20934;-82
2021/12/05 12:41:32;;;;;;;3.63;1.60;;;12.50;99.90;;;;;;5015825;28;20469;-82
2021/12/05 12:44:05;;;;;;;3.50;1.40;;;12.10;99.90;;;;;;5030491;28;20420;-82
2021/12/05 12:46:54;;;;;;;3.40;1.60;;;11.80;99.90;;;;;;5030494;28;20424;-82
2021/12/05 12:49:20;;;;;;;6.90;1.67;;;11.30;99.90;;;;;;5014976;28;20546;-82
2021/12/05 12:51:45;;;;;;;3.03;1.40;;;11.10;99.90;;;;;;5030310;28;21016;-82
2021/12/05 12:54:23;;;;;;;2.80;1.40;;;10.80;99.90;;;;;;5015063;28;20412;-82
2021/12/05 12:57:12;;;;;;;3.67;1.83;;;10.60;99.90;;;;;;5030186;28;20176;-82
2021/12/05 12:59:45;;;;;;;5.00;2.20;;;10.40;99.90;;;;;;5030312;28;20798;-83
2021/12/05 13:02:28;;;;;;;5.00;1.97;;;10.40;99.90;;;;;;5030558;28;20867;-82
2021/12/05 13:05:19;;;;;;;3.77;1.77;;;10.10;99.90;;;;;;5030445;28;20419;-82
2021/12/05 13:10:40;;;;;;;3.80;1.50;;;9.80;99.90;;;;;;5015313;28;20411;-82
2021/12/05 13:13:15;;;;;;;3.73;1.40;;;9.80;99.90;;;;;;5014475;28;20817;-83
2021/12/05 13:15:52;;;;;;;4.67;1.67;;;9.80;99.90;;;;;;5014832;28;20506;-82
2021/12/05 13:18:25;;;;;;;5.17;1.50;;;9.70;99.90;;;;;;5014555;28;20439;-82
2021/12/05 13:21:16;;;;;;;2.70;1.10;;;9.70;99.90;;;;;;5029920;28;20436;-82
2021/12/05 13:23:48;;;;;;;6.57;1.80;;;9.80;99.90;;;;;;5029514;28;20429;-83
2021/12/05 13:26:13;;;;;;;4.43;1.60;;;10.10;99.90;;;;;;5030055;28;20923;-82
2021/12/05 13:28:43;;;;;;;4.87;1.70;;;10.10;99.90;;;;;;5029486;28;20459;-82
2021/12/05 13:31:27;;;;;;;4.17;1.70;;;10.10;99.90;;;;;;5029752;28;20177;-82
2021/12/05 13:34:24;;;;;;;3.00;1.60;;;10.10;99.90;;;;;;5014321;28;20431;-83
2021/12/05 13:36:55;;;;;;;3.50;1.70;;;10.10;99.90;;;;;;5029262;28;20462;-81
2021/12/05 13:39:45;;;;;;;3.40;1.67;;;9.90;99.90;;;;;;5029266;28;20447;-82
2021/12/05 13:42:10;;;;;;;3.23;1.50;;;9.80;99.90;;;;;;5029692;28;20412;-82
2021/12/05 13:44:58;;;;;;;2.70;1.30;;;9.70;99.90;;;;;;5029321;28;20420;-83
2021/12/05 13:47:29;;;;;;;2.67;1.33;;;9.60;99.90;;;;;;5029474;28;20185;-82
2021/12/05 13:49:56;;;;;;;2.73;1.20;;;9.50;99.90;;;;;;5029287;28;20836;-82
2021/12/05 13:52:30;;;;;;;4.00;2.13;;;9.40;99.90;;;;;;5029562;28;20423;-81
2021/12/05 13:55:39;;;;;;;4.53;1.70;;;9.40;99.90;;;;;;5029271;28;20518;-81
2021/12/05 13:58:34;;;;;;;3.77;1.50;;;9.50;99.90;;;;;;4993234;28;20459;-83
2021/12/05 14:00:59;;;;;;;3.27;1.40;;;9.50;99.90;;;;;;5028784;28;20456;-82
2021/12/05 14:03:44;;;;;;;3.80;1.40;;;9.50;99.90;;;;;;5013854;28;20459;-83
2021/12/05 14:06:36;;;;;;;2.50;1.30;;;9.40;99.90;;;;;;5029019;28;20185;-82
2021/12/05 14:09:08;;;;;;;3.27;1.50;;;9.30;99.90;;;;;;5045459;22;20588;-82
2021/12/05 14:11:41;;;;;;;3.47;1.47;;;9.30;99.90;;;;;;5016613;28;20482;-84
2021/12/05 14:14:08;;;;;;;2.87;1.60;;;9.30;99.90;;;;;;5018298;28;20522;-85
2021/12/05 14:16:40;;;;;;;4.00;1.80;;;9.20;99.90;;;;;;5048752;28;20421;-83
2021/12/05 14:19:10;;;;;;;5.73;3.10;;;9.10;99.90;;;;;;5028661;28;20981;-85
2021/12/05 14:21:46;;;;;;;4.33;1.63;;;9.00;99.90;;;;;;5012557;28;20488;-83
2021/12/05 14:24:13;;;;;;;2.43;1.23;;;8.90;99.90;;;;;;5013295;28;20558;-84
2021/12/05 14:26:40;;;;;;;3.57;1.37;;;8.80;99.90;;;;;;5012479;28;20423;-83
2021/12/05 14:29:09;;;;;;;2.10;0.90;;;8.80;99.90;;;;;;5011824;28;20483;-83
2021/12/05 14:31:41;;;;;;;2.87;1.10;;;8.70;99.90;;;;;;5016894;28;20495;-86
2021/12/05 14:34:11;;;;;;;2.90;1.57;;;8.60;99.90;;;;;;5016823;28;20419;-84
2021/12/05 14:36:47;;;;;;;3.73;1.60;;;8.70;99.90;;;;;;5009521;28;21019;-84
2021/12/05 14:39:35;;;;;;;2.80;1.17;;;8.70;99.90;;;;;;4993484;28;20439;-85
2021/12/05 14:42:10;;;;;;;3.77;1.40;;;8.60;99.90;;;;;;5011891;28;20506;-85
2021/12/05 14:44:40;;;;;;;2.70;1.20;;;8.60;99.90;;;;;;5031508;28;20411;-86
2021/12/05 14:47:13;;;;;;;3.10;1.50;;;8.60;99.90;;;;;;5030754;28;20956;-86
2021/12/05 14:49:41;;;;;;;4.53;1.13;;;8.60;99.90;;;;;;5030092;28;20474;-86
2021/12/05 14:52:15;;;;;;;3.00;1.40;;;8.70;99.90;;;;;;5011440;28;20680;-86
2021/12/05 14:54:41;;;;;;;2.70;1.23;;;8.70;99.90;;;;;;5011646;28;20756;-84
2021/12/05 14:57:11;;;;;;;2.40;1.20;;;8.80;99.90;;;;;;5011454;28;20420;-87
2021/12/05 14:59:37;;;;;;;5.13;1.73;;;8.70;99.90;;;;;;5012944;28;20451;-86
2021/12/05 15:02:04;;;;;;;3.00;1.60;;;8.80;99.90;;;;;;5012506;28;20421;-87
2021/12/05 15:04:36;;;;;;;3.20;1.60;;;8.80;99.90;;;;;;5010122;28;20433;-86
2021/12/05 15:07:02;;;;;;;4.97;1.80;;;8.80;99.90;;;;;;4994990;28;20421;-84
2021/12/05 15:09:56;;;;;;;3.17;1.80;;;8.80;99.90;;;;;;4993515;28;20826;-86
2021/12/05 15:12:34;;;;;;;4.93;1.53;;;8.70;99.90;;;;;;4990710;28;20418;-85
2021/12/05 15:15:03;;;;;;;4.30;2.10;;;8.70;99.90;;;;;;4992309;28;20417;-87
2021/12/05 15:17:35;;;;;;;5.43;2.03;;;8.70;99.90;;;;;;4992404;28;20413;-84
2021/12/05 15:20:04;;;;;;;4.63;2.57;;;8.60;99.90;;;;;;4991792;28;20441;-84
2021/12/05 15:22:30;;;;;;;4.53;2.70;;;8.60;99.90;;;;;;4992347;28;20928;-85
2021/12/05 15:25:00;;;;;;;5.40;3.00;;;8.60;99.90;;;;;;4992107;28;20507;-85
2021/12/05 15:27:28;;;;;;;4.93;2.80;;;8.60;99.90;;;;;;4993375;28;20191;-87
2021/12/05 15:30:00;;;;;;;5.60;3.20;;;8.60;99.90;;;;;;4991624;28;20809;-86
2021/12/05 15:32:29;;;;;;;4.73;2.67;;;8.50;99.90;;;;;;4992241;28;20508;-85
2021/12/05 15:34:58;;;;;;;4.57;2.83;;;8.50;99.90;;;;;;4992202;28;20427;-85
2021/12/05 15:37:25;;;;;;;5.03;2.47;;;8.50;99.90;;;;;;4992065;28;20417;-85
2021/12/05 15:39:53;;;;;;;4.30;2.20;;;8.40;99.90;;;;;;4993463;28;20457;-85
2021/12/05 15:42:25;;;;;;;4.33;2.10;;;8.30;99.90;;;;;;5017643;28;20450;-85
2021/12/05 15:44:55;;;;;;;3.83;1.87;;;8.20;99.90;;;;;;5009385;28;20844;-85
2021/12/05 15:47:24;;;;;;;3.37;2.00;;;8.20;99.90;;;;;;5018268;28;20443;-86
2021/12/05 15:50:11;;;;;;;4.93;2.40;;;8.20;99.90;;;;;;5009854;28;20475;-85
2021/12/05 15:52:39;;;;;;;8.73;2.60;;;8.20;99.90;;;;;;5011597;28;20435;-85
2021/12/05 15:55:27;;;;;;;4.50;2.30;;;8.20;99.90;;;;;;5009585;28;20651;-86
2021/12/05 15:57:59;;;;;;;6.80;3.50;;;8.20;99.90;;;;;;5008923;28;20973;-86
2021/12/05 16:00:32;;;;;;;6.53;3.53;;;8.20;99.90;;;;;;5033010;28;20914;-86
2021/12/05 16:02:57;;;;;;;5.53;2.80;;;8.20;99.90;;;;;;5027816;28;21009;-84
2021/12/05 16:05:24;;;;;;;5.27;2.83;;;8.10;99.90;;;;;;5014777;28;20434;-86
2021/12/05 16:07:50;;;;;;;8.00;3.40;;;8.00;99.90;;;;;;5011969;28;20226;-85
2021/12/05 16:10:22;;;;;;;3.93;2.80;;;8.00;99.90;;;;;;5006881;28;20473;-85
2021/12/05 16:12:51;;;;;;;5.97;3.17;;;8.00;99.90;;;;;;5005041;28;20432;-83
2021/12/05 16:15:19;;;;;;;4.97;3.00;;;8.10;99.90;;;;;;5000075;28;20460;-87
2021/12/05 16:17:53;;;;;;;4.67;3.23;;;8.10;99.90;;;;;;4997513;28;20436;-84
2021/12/05 16:20:26;;;;;;;4.07;2.03;;;8.10;99.90;;;;;;5035169;28;20430;-84
2021/12/05 16:23:11;;;;;;;3.90;2.17;;;8.00;99.90;;;;;;5038671;28;20403;-87
2021/12/05 16:26:03;;;;;;;4.70;2.30;;;8.00;99.90;;;;;;5034940;28;20453;-86
2021/12/05 16:28:34;;;;;;;4.40;3.13;;;8.10;99.90;;;;;;5015291;28;20522;-85
2021/12/05 16:31:05;;;;;;;6.47;3.27;;;8.00;99.90;;;;;;5034685;28;20395;-87
2021/12/05 16:33:31;;;;;;;7.37;3.23;;;8.00;99.90;;;;;;5034533;28;20430;-87
2021/12/05 16:35:58;;;;;;;5.00;3.90;;;8.00;99.90;;;;;;5033651;28;20426;-87
2021/12/05 16:38:26;;;;;;;6.07;3.20;;;7.90;99.90;;;;;;5017628;28;20439;-85
2021/12/05 16:41:04;;;;;;;5.00;3.20;;;7.90;99.90;;;;;;5012950;28;20432;-86
2021/12/05 16:43:31;;;;;;;4.20;2.50;;;7.90;99.90;;;;;;5012218;28;20446;-84
2021/12/05 16:46:26;;;;;;;3.90;2.20;;;7.90;99.90;;;;;;5014862;28;20431;-86
2021/12/05 16:48:53;;;;;;;4.57;2.17;;;7.90;99.90;;;;;;5005511;28;20472;-85
2021/12/05 16:51:59;;;;;;;3.30;2.23;;;7.90;99.90;;;;;;5015518;28;20421;-86
2021/12/05 16:54:32;;;;;;;3.90;2.27;;;7.90;99.90;;;;;;5016521;28;20424;-85
2021/12/05 16:57:01;;;;;;;2.83;1.90;;;7.80;99.90;;;;;;5017202;28;20396;-83
2021/12/05 16:59:44;;;;;;;3.80;2.10;;;7.70;99.90;;;;;;5014996;28;21276;-84
2021/12/05 17:02:12;;;;;;;3.57;1.77;;;7.70;99.90;;;;;;5015330;28;20446;-84
2021/12/05 17:04:57;;;;;;;3.40;2.17;;;7.80;99.90;;;;;;5013129;28;20773;-84
2021/12/05 17:07:55;;;;;;;4.77;2.17;;;7.70;99.90;;;;;;4996019;28;20421;-84
2021/12/05 17:10:21;;;;;;;3.60;2.47;;;7.70;99.90;;;;;;4993711;28;20898;-84
2021/12/05 17:12:55;;;;;;;3.50;2.30;;;7.70;99.90;;;;;;5024047;28;20416;-82
2021/12/05 17:15:30;;;;;;;3.50;2.57;;;7.60;99.90;;;;;;5034892;28;20199;-86
2021/12/05 17:18:02;;;;;;;5.13;2.90;;;7.60;99.90;;;;;;5035014;28;20426;-85
2021/12/05 17:20:36;;;;;;;9.33;4.90;;;7.50;99.90;;;;;;5034414;28;20822;-84
2021/12/05 17:23:09;;;;;;;5.87;3.90;;;7.40;99.90;;;;;;5034424;28;20415;-83
2021/12/05 17:25:41;;;;;;;5.40;3.80;;;7.40;99.90;;;;;;5034604;28;20423;-86
2021/12/05 17:28:11;;;;;;;8.67;5.00;;;7.30;99.90;;;;;;5034218;28;20485;-85
2021/12/05 17:30:50;;;;;;;8.70;4.63;;;7.40;99.90;;;;;;5034089;28;20810;-86
2021/12/05 17:33:33;;;;;;;9.20;4.90;;;7.40;99.90;;;;;;5033886;28;20434;-85
2021/12/05 17:36:29;;;;;;;7.20;5.30;;;7.30;99.90;;;;;;5034193;28;20486;-85
2021/12/05 17:39:00;;;;;;;7.57;4.73;;;7.30;99.90;;;;;;5033903;28;20816;-85
2021/12/05 17:41:28;;;;;;;6.87;4.17;;;7.30;99.90;;;;;;5035460;28;20414;-84
2021/12/05 17:43:55;;;;;;;5.83;3.73;;;7.40;99.90;;;;;;5033165;28;20447;-84
2021/12/05 17:46:21;;;;;;;4.70;3.60;;;7.40;99.90;;;;;;5034527;28;20411;-84
2021/12/05 17:48:47;;;;;;;6.37;3.80;;;7.40;99.90;;;;;;5033002;28;20845;-83
2021/12/05 17:51:12;;;;;;;7.37;3.87;;;7.40;99.90;;;;;;5032830;28;20575;-85
2021/12/05 17:53:40;;;;;;;7.37;4.70;;;7.50;99.90;;;;;;5033422;28;20184;-84
2021/12/05 17:56:53;;;;;;;6.20;4.07;;;7.50;99.90;;;;;;5033339;28;20184;-83
2021/12/05 17:59:25;;;;;;;6.50;4.90;;;7.50;99.90;;;;;;5025801;28;20450;-84
2021/12/05 18:04:41;;;;;;;6.93;4.83;;;7.40;99.90;;;;;;5034443;28;20933;-84
2021/12/05 18:07:08;;;;;;;6.20;3.60;;;7.30;99.90;;;;;;5032851;28;20423;-86
2021/12/05 18:09:34;;;;;;;5.10;4.20;;;7.20;99.90;;;;;;5032315;28;20562;-83
2021/12/05 18:12:00;;;;;;;6.67;4.73;;;7.20;99.90;;;;;;5033955;28;20452;-83
2021/12/05 18:14:25;;;;;;;5.27;4.10;;;7.20;99.90;;;;;;5045308;28;20234;-83
2021/12/05 18:16:51;;;;;;;7.03;5.33;;;7.20;99.90;;;;;;5032341;28;20930;-84
2021/12/05 18:19:20;;;;;;;6.87;5.53;;;7.20;99.90;;;;;;5032085;28;20227;-84